createdAt,value
2022-11-07T00:03:09.755Z,11.43
2022-11-07T00:08:41.423Z,11.46
2022-11-07T00:14:13.301Z,11.53
2022-11-07T00:19:44.780Z,11.42
2022-11-07T00:25:16.670Z,11.53
2022-11-07T00:30:52.717Z,11.66
2022-11-07T00:36:24.221Z,11.64
2022-11-07T00:41:56.205Z,11.83
2022-11-07T00:47:27.656Z,11.89
2022-11-07T00:52:59.653Z,11.93
2022-11-07T00:58:31.107Z,11.91
2022-11-07T01:04:03.610Z,11.99
2022-11-07T01:09:34.835Z,11.93
2022-11-07T01:15:06.522Z,11.94
2022-11-07T01:20:38.194Z,12.08
2022-11-07T01:26:09.746Z,12.04
2022-11-07T01:31:46.044Z,12.1
2022-11-07T01:37:17.524Z,12.02
2022-11-07T01:42:49.669Z,12.05
2022-11-07T01:48:21.255Z,12.16
2022-11-07T01:53:52.983Z,12.27
2022-11-07T01:59:24.479Z,12.18
2022-11-07T02:04:56.168Z,12.13
2022-11-07T02:10:28.106Z,12.14
2022-11-07T02:15:59.583Z,12.17
2022-11-07T02:21:31.325Z,12.45
2022-11-07T02:27:03.051Z,12.33
2022-11-07T02:32:41.134Z,12.28
2022-11-07T02:38:13.093Z,12.31
2022-11-07T02:43:44.583Z,12.55
2022-11-07T02:49:16.332Z,12.56
2022-11-07T02:54:48.262Z,12.79
2022-11-07T03:00:19.752Z,12.75
2022-11-07T03:05:51.950Z,12.71
2022-11-07T03:11:23.194Z,12.78
2022-11-07T03:16:55.063Z,12.79
2022-11-07T03:22:26.616Z,12.89
2022-11-07T03:27:58.382Z,12.75
2022-11-07T03:33:34.491Z,12.66
2022-11-07T03:39:06.209Z,12.68
2022-11-07T03:44:37.896Z,12.7
2022-11-07T03:50:09.802Z,12.77
2022-11-07T03:55:41.323Z,12.75
2022-11-07T04:01:13.038Z,12.82
2022-11-07T04:06:44.772Z,12.79
2022-11-07T04:12:16.500Z,12.84
2022-11-07T04:17:48.202Z,12.91
2022-11-07T04:23:19.945Z,12.79
2022-11-07T04:28:51.847Z,13.06
2022-11-07T04:34:27.761Z,13.03
2022-11-07T04:39:59.881Z,12.96
2022-11-07T04:45:31.167Z,12.88
2022-11-07T04:51:02.891Z,12.84
2022-11-07T04:56:34.766Z,13.09
2022-11-07T05:02:06.500Z,13.13
2022-11-07T05:07:38.093Z,13.28
2022-11-07T05:13:10.111Z,13.28
2022-11-07T05:18:41.769Z,13.22
2022-11-07T05:24:13.535Z,13.17
2022-11-07T05:29:45.086Z,13.03
2022-11-07T05:35:21.071Z,12.92
2022-11-07T05:40:53.022Z,12.7
2022-11-07T05:46:25.119Z,12.85
2022-11-07T05:51:56.452Z,12.52
2022-11-07T05:57:27.998Z,12.56
2022-11-07T06:02:59.972Z,12.49
2022-11-07T06:08:31.369Z,12.42
2022-11-07T06:14:03.128Z,12.35
2022-11-07T06:19:34.898Z,12.36
2022-11-07T06:25:06.603Z,12.29
2022-11-07T06:30:38.536Z,12.39
2022-11-07T06:36:14.959Z,12.39
2022-11-07T06:41:46.350Z,12.34
2022-11-07T06:47:18.088Z,12.46
2022-11-07T06:52:49.546Z,12.47
2022-11-07T06:58:21.282Z,12.5
2022-11-07T07:03:53.331Z,12.68
2022-11-07T07:09:24.923Z,12.65
2022-11-07T07:14:56.428Z,12.72
2022-11-07T07:20:28.175Z,12.75
2022-11-07T07:26:00.046Z,12.74
2022-11-07T07:31:32.064Z,12.84
2022-11-07T07:37:09.900Z,12.83
2022-11-07T07:42:41.519Z,12.91
2022-11-07T07:48:13.139Z,12.95
2022-11-07T07:53:44.939Z,13.03
2022-11-07T07:59:17.311Z,13.26
2022-11-07T08:04:49.326Z,13.26
2022-11-07T08:10:40.670Z,13.46
2022-11-07T08:15:53.676Z,13.53
2022-11-07T08:21:25.175Z,13.45
2022-11-07T08:26:56.850Z,13.46
2022-11-07T08:32:29.062Z,13.53
2022-11-07T08:38:04.731Z,13.45
2022-11-07T08:43:36.886Z,13.51
2022-11-07T08:49:08.436Z,13.67
2022-11-07T08:54:39.896Z,13.7
2022-11-07T09:00:11.656Z,13.79
2022-11-07T09:05:43.341Z,13.84
2022-11-07T09:11:15.296Z,14.02
2022-11-07T09:16:47.016Z,14.06
2022-11-07T09:22:18.747Z,14.01
2022-11-07T09:27:50.198Z,14.2
2022-11-07T09:33:22.307Z,14.19
2022-11-07T09:38:58.060Z,14.41
2022-11-07T09:44:31.762Z,14.51
2022-11-07T09:50:01.555Z,14.66
2022-11-07T09:55:33.446Z,14.5
2022-11-07T10:01:05.195Z,14.68
2022-11-07T10:06:36.645Z,14.69
2022-11-07T10:12:08.614Z,14.86
2022-11-07T10:17:40.414Z,14.95
2022-11-07T10:23:12.078Z,14.85
2022-11-07T10:28:43.823Z,14.97
2022-11-07T10:34:15.247Z,15.21
2022-11-07T10:39:51.382Z,15.11
2022-11-07T10:45:23.450Z,15.25
2022-11-07T10:50:54.837Z,15.17
2022-11-07T10:56:26.502Z,15.42
2022-11-07T11:01:58.311Z,15.71
2022-11-07T11:07:29.950Z,15.88
2022-11-07T11:13:01.891Z,16.01
2022-11-07T11:18:33.891Z,16.37
2022-11-07T11:24:05.155Z,16.43
2022-11-07T11:29:39.591Z,16.0
2022-11-07T11:35:08.607Z,16.09
2022-11-07T11:40:45.055Z,15.93
2022-11-07T11:46:16.759Z,15.95
2022-11-07T11:51:48.331Z,15.81
2022-11-07T11:57:19.958Z,15.9
2022-11-07T12:02:51.566Z,15.8
2022-11-07T12:08:23.516Z,16.4
2022-11-07T12:13:55.416Z,16.55
2022-11-07T12:19:26.777Z,16.63
2022-11-07T12:24:58.501Z,16.73
2022-11-07T12:30:30.236Z,16.89
2022-11-07T12:36:02.625Z,17.16
2022-11-07T12:41:38.066Z,17.14
2022-11-07T12:47:09.855Z,17.0
2022-11-07T12:52:41.822Z,16.94
2022-11-07T12:58:13.286Z,16.96
2022-11-07T13:03:45.020Z,17.01
2022-11-07T13:09:17.023Z,16.68
2022-11-07T13:14:48.719Z,16.94
2022-11-07T13:20:20.406Z,16.81
2022-11-07T13:25:51.948Z,16.81
2022-11-07T13:31:23.859Z,16.97
2022-11-07T13:36:55.619Z,16.85
2022-11-07T13:42:31.485Z,16.92
2022-11-07T13:48:03.476Z,17.05
2022-11-07T13:53:35.248Z,17.09
2022-11-07T13:59:06.891Z,16.79
2022-11-07T14:04:44.494Z,17.0
2022-11-07T14:10:10.085Z,16.83
2022-11-07T14:15:41.822Z,16.66
2022-11-07T14:21:13.767Z,16.87
2022-11-07T14:26:45.235Z,16.78
2022-11-07T14:32:16.956Z,16.63
2022-11-07T14:37:49.048Z,16.6
2022-11-07T14:43:24.930Z,16.54
2022-11-07T14:48:56.777Z,16.68
2022-11-07T14:54:29.144Z,16.45
2022-11-07T14:59:59.953Z,16.28
2022-11-07T15:05:31.698Z,16.17
2022-11-07T15:11:03.428Z,16.39
2022-11-07T15:16:35.143Z,16.24
2022-11-07T15:22:07.243Z,16.12
2022-11-07T15:27:38.559Z,16.03
2022-11-07T15:33:10.319Z,15.89
2022-11-07T15:38:42.051Z,15.95
2022-11-07T15:44:18.126Z,15.99
2022-11-07T15:49:50.063Z,16.06
2022-11-07T15:55:21.588Z,16.15
2022-11-07T16:00:53.301Z,16.17
2022-11-07T16:06:25.950Z,16.2
2022-11-07T16:11:56.965Z,16.39
2022-11-07T16:17:28.736Z,16.44
2022-11-07T16:23:00.160Z,16.46
2022-11-07T16:28:31.868Z,16.37
2022-11-07T16:34:03.843Z,16.19
2022-11-07T16:39:35.474Z,15.88
2022-11-07T16:45:11.454Z,15.77
2022-11-07T16:50:43.857Z,15.73
2022-11-07T16:56:15.656Z,15.8
2022-11-07T17:01:47.703Z,15.64
2022-11-07T17:07:19.238Z,15.56
2022-11-07T17:12:51.123Z,15.38
2022-11-07T17:18:22.625Z,15.46
2022-11-07T17:23:54.357Z,15.42
2022-11-07T17:29:26.027Z,15.52
2022-11-07T17:35:18.075Z,15.24
2022-11-07T17:40:29.459Z,15.21
2022-11-07T17:46:09.759Z,15.11
2022-11-07T17:51:41.763Z,15.01
2022-11-07T17:57:13.203Z,14.94
2022-11-07T18:02:45.057Z,14.73
2022-11-07T18:08:25.105Z,14.94
2022-11-07T18:13:48.475Z,14.98
2022-11-07T18:19:19.981Z,15.09
2022-11-07T18:24:51.709Z,15.12
2022-11-07T18:30:23.462Z,15.07
2022-11-07T18:35:55.434Z,14.95
2022-11-07T18:41:27.034Z,14.71
2022-11-07T18:47:03.333Z,14.44
2022-11-07T18:52:34.805Z,14.51
2022-11-07T18:58:06.710Z,14.58
2022-11-07T19:03:38.565Z,14.36
2022-11-07T19:09:10.009Z,14.7
2022-11-07T19:14:42.016Z,14.8
2022-11-07T19:20:13.810Z,14.82
2022-11-07T19:25:45.238Z,14.77
2022-11-07T19:31:17.166Z,14.65
2022-11-07T19:36:48.944Z,14.57
2022-11-07T19:42:20.754Z,14.68
2022-11-07T19:47:56.894Z,14.67
2022-11-07T19:53:28.514Z,14.59
2022-11-07T19:59:00.169Z,14.47
2022-11-07T20:04:31.756Z,14.42
2022-11-07T20:10:03.458Z,14.31
2022-11-07T20:15:35.217Z,14.11
2022-11-07T20:21:07.195Z,13.9
2022-11-07T20:26:39.042Z,13.78
2022-11-07T20:32:11.072Z,13.52
2022-11-07T20:37:42.467Z,13.49
2022-11-07T20:43:14.174Z,13.48
2022-11-07T20:48:50.054Z,13.4
2022-11-07T20:54:21.863Z,13.42
2022-11-07T20:59:53.728Z,13.37
2022-11-07T21:05:25.466Z,13.31
2022-11-07T21:10:56.951Z,13.19
2022-11-07T21:16:29.298Z,13.1
2022-11-07T21:22:00.414Z,12.95
2022-11-07T21:27:32.296Z,12.88
2022-11-07T21:33:04.487Z,12.95
2022-11-07T21:38:35.547Z,12.85
2022-11-07T21:44:07.289Z,12.9
2022-11-07T21:49:45.423Z,12.76
2022-11-07T21:55:17.089Z,12.78
2022-11-07T22:00:48.891Z,12.98
2022-11-07T22:06:20.542Z,13.01
2022-11-07T22:11:52.434Z,13.05
2022-11-07T22:17:24.152Z,13.0
2022-11-07T22:22:56.266Z,12.97
2022-11-07T22:28:27.448Z,12.93
2022-11-07T22:33:59.144Z,12.92
2022-11-07T22:39:31.018Z,12.88
2022-11-07T22:45:02.638Z,12.82
2022-11-07T22:50:38.667Z,12.71
2022-11-07T22:56:10.928Z,12.76
2022-11-07T23:01:42.182Z,12.72
2022-11-07T23:07:14.073Z,12.7
2022-11-07T23:12:45.650Z,12.24
2022-11-07T23:18:17.536Z,12.3
2022-11-07T23:23:49.175Z,12.29
2022-11-07T23:29:20.726Z,12.27
2022-11-07T23:34:53.174Z,12.22
2022-11-07T23:40:24.374Z,12.04
2022-11-07T23:45:56.186Z,11.9
2022-11-07T23:51:31.994Z,11.77
2022-11-07T23:57:03.674Z,11.87
